Time;durP1;ratioP1;P1;durP2;ratioP2;P2;SDS_P1;SDS_P2;PMS_P1;PMS_P2;Temp;Humidity;BMP_temperature;BMP_pressure;BME280_temperature;BME280_humidity;BME280_pressure;Samples;Min_cycle;Max_cycle;Signal;HPM_P1;HPM_P2
2022/06/16 00:00:36;;;;;;;0.50;0.30;;;17.60;99.90;;;;;;5097923;28;20810;-83
2022/06/16 00:03:05;;;;;;;0.50;0.37;;;17.60;99.90;;;;;;5097978;28;20863;-82
2022/06/16 00:05:34;;;;;;;0.50;0.30;;;17.40;99.90;;;;;;5098027;28;21004;-82
2022/06/16 00:08:02;;;;;;;0.50;0.40;;;17.40;99.90;;;;;;5098041;28;20455;-81
2022/06/16 00:10:28;;;;;;;0.50;0.40;;;17.30;99.90;;;;;;5097531;28;20447;-81
2022/06/16 00:12:55;;;;;;;0.50;0.40;;;17.20;99.90;;;;;;5097797;28;21043;-82
2022/06/16 00:15:25;;;;;;;0.50;0.40;;;17.10;99.90;;;;;;5097848;28;20441;-83
2022/06/16 00:17:53;;;;;;;0.50;0.37;;;17.10;99.90;;;;;;5097516;28;20502;-82
2022/06/16 00:20:21;;;;;;;0.50;0.30;;;17.00;99.90;;;;;;5096858;28;20441;-81
2022/06/16 00:22:48;;;;;;;0.50;0.40;;;17.00;99.90;;;;;;5097595;28;20449;-82
2022/06/16 00:25:15;;;;;;;0.50;0.40;;;17.00;99.90;;;;;;5097788;28;20528;-82
2022/06/16 00:27:42;;;;;;;0.50;0.40;;;16.90;99.90;;;;;;5097098;28;20887;-83
2022/06/16 00:30:11;;;;;;;0.50;0.40;;;16.90;99.90;;;;;;5096502;28;20441;-83
2022/06/16 00:32:38;;;;;;;0.50;0.40;;;16.90;99.90;;;;;;5097537;28;20445;-81
2022/06/16 00:35:07;;;;;;;1.70;1.60;;;16.80;99.90;;;;;;5103343;28;20464;-80
2022/06/16 00:37:35;;;;;;;0.50;0.40;;;16.80;99.90;;;;;;5112756;28;20887;-81
2022/06/16 00:40:01;;;;;;;0.50;0.40;;;16.80;99.90;;;;;;5111746;28;20518;-81
2022/06/16 00:42:28;;;;;;;0.50;0.40;;;16.70;99.90;;;;;;5111447;28;20432;-81
2022/06/16 00:44:57;;;;;;;0.67;0.60;;;16.70;99.90;;;;;;5105277;28;20490;-81
2022/06/16 00:47:26;;;;;;;0.50;0.30;;;16.70;99.90;;;;;;5111439;28;20487;-78
2022/06/16 00:49:56;;;;;;;0.50;0.50;;;16.70;99.90;;;;;;5115047;28;20431;-79
2022/06/16 00:52:28;;;;;;;0.50;0.40;;;16.60;99.90;;;;;;5116131;28;20478;-81
2022/06/16 00:54:59;;;;;;;0.50;0.40;;;16.50;99.90;;;;;;5105885;28;20493;-81
2022/06/16 00:57:33;;;;;;;0.50;0.40;;;16.60;99.90;;;;;;5101684;28;21008;-83
2022/06/16 01:00:00;;;;;;;0.70;0.70;;;16.60;99.90;;;;;;5102293;28;20510;-81
2022/06/16 01:02:28;;;;;;;0.50;0.40;;;16.50;99.90;;;;;;5101802;28;20530;-82
2022/06/16 01:04:54;;;;;;;0.50;0.40;;;16.50;99.90;;;;;;5101277;28;20511;-82
2022/06/16 01:07:27;;;;;;;0.50;0.40;;;16.40;99.90;;;;;;5101407;28;20455;-82
2022/06/16 01:09:56;;;;;;;0.50;0.40;;;16.40;99.90;;;;;;5101581;28;20456;-82
2022/06/16 01:15:44;;;;;;;0.50;0.40;;;16.30;99.90;;;;;;5101415;28;20457;-82
2022/06/16 01:18:21;;;;;;;0.50;0.40;;;16.40;99.90;;;;;;5101455;28;20543;-83
2022/06/16 01:20:53;;;;;;;0.50;0.40;;;16.30;99.90;;;;;;5101546;28;20469;-83
2022/06/16 01:23:59;;;;;;;9.87;1.07;;;16.30;99.90;;;;;;5101493;28;20409;-82
2022/06/16 01:26:59;;;;;;;0.50;0.40;;;16.30;99.90;;;;;;5101233;28;20428;-83
2022/06/16 01:29:37;;;;;;;0.50;0.40;;;16.30;99.90;;;;;;5094693;28;20451;-81
2022/06/16 01:32:13;;;;;;;0.50;0.40;;;16.30;99.90;;;;;;5100725;28;20431;-83
2022/06/16 01:34:47;;;;;;;0.50;0.30;;;16.20;99.90;;;;;;5100916;28;20480;-82
2022/06/16 01:37:22;;;;;;;0.50;0.37;;;16.20;99.90;;;;;;5099996;28;20552;-81
2022/06/16 01:39:56;;;;;;;0.50;0.40;;;16.20;99.90;;;;;;5100911;28;21039;-81
2022/06/16 01:42:31;;;;;;;0.63;0.63;;;16.20;99.90;;;;;;5100880;28;20443;-83
2022/06/16 01:45:06;;;;;;;0.50;0.30;;;16.10;99.90;;;;;;5102136;28;20415;-80
2022/06/16 01:47:35;;;;;;;0.50;0.40;;;16.10;99.90;;;;;;5100414;28;20512;-83
2022/06/16 01:50:07;;;;;;;0.50;0.40;;;16.00;99.90;;;;;;5101151;28;20436;-83
2022/06/16 01:52:38;;;;;;;0.50;0.40;;;16.00;99.90;;;;;;5100130;28;20440;-83
2022/06/16 01:55:11;;;;;;;0.50;0.40;;;16.00;99.90;;;;;;5100766;28;20420;-82
2022/06/16 01:57:43;;;;;;;0.50;0.40;;;15.90;99.90;;;;;;5099500;28;21004;-82
2022/06/16 02:00:16;;;;;;;0.50;0.40;;;16.00;99.90;;;;;;5100131;28;20836;-83
2022/06/16 02:02:44;;;;;;;0.50;0.40;;;16.00;99.90;;;;;;5100119;28;20439;-81
2022/06/16 02:05:16;;;;;;;0.50;0.40;;;16.10;99.90;;;;;;5099414;28;20475;-81
2022/06/16 02:07:48;;;;;;;0.50;0.40;;;16.10;99.90;;;;;;5100865;28;20452;-83
2022/06/16 02:10:19;;;;;;;0.50;0.37;;;16.10;99.90;;;;;;5101328;28;20471;-82
2022/06/16 02:12:59;;;;;;;0.50;0.40;;;16.10;99.90;;;;;;5099733;28;20790;-82
2022/06/16 02:15:36;;;;;;;0.50;0.40;;;16.10;99.90;;;;;;5099742;28;20433;-82
2022/06/16 02:18:05;;;;;;;0.50;0.40;;;16.10;99.90;;;;;;5099752;28;20478;-83
2022/06/16 02:20:44;;;;;;;0.50;0.40;;;16.00;99.90;;;;;;5100029;28;20865;-83
2022/06/16 02:23:11;;;;;;;0.50;0.40;;;16.10;99.90;;;;;;5099896;28;20440;-83
2022/06/16 02:25:38;;;;;;;0.50;0.40;;;16.00;99.90;;;;;;5100333;28;20450;-83
2022/06/16 02:28:05;;;;;;;0.50;0.37;;;16.10;99.90;;;;;;5099209;28;20456;-82
2022/06/16 02:30:44;;;;;;;0.50;0.40;;;16.10;99.90;;;;;;5099736;28;20442;-83
2022/06/16 02:33:16;;;;;;;0.50;0.40;;;16.00;99.90;;;;;;5100067;28;20420;-82
2022/06/16 02:35:54;;;;;;;0.60;0.40;;;16.00;99.90;;;;;;5099630;28;20427;-81
2022/06/16 02:38:35;;;;;;;0.50;0.43;;;15.90;99.90;;;;;;5099176;28;20479;-80
2022/06/16 02:41:12;;;;;;;0.50;0.40;;;15.80;99.90;;;;;;5098525;28;20834;-82
2022/06/16 02:44:01;;;;;;;0.50;0.40;;;15.80;99.90;;;;;;5100283;28;20477;-82
2022/06/16 02:46:50;;;;;;;0.50;0.30;;;15.70;99.90;;;;;;5099151;28;20476;-81
2022/06/16 02:49:26;;;;;;;0.50;0.40;;;15.60;99.90;;;;;;5099385;28;20789;-82
2022/06/16 02:52:05;;;;;;;0.60;0.40;;;15.60;99.90;;;;;;5099980;28;20433;-82
2022/06/16 02:54:39;;;;;;;0.50;0.40;;;15.60;99.90;;;;;;5099775;28;20436;-82
2022/06/16 02:57:21;;;;;;;0.50;0.40;;;15.60;99.90;;;;;;5099372;28;20475;-82
2022/06/16 02:59:51;;;;;;;0.50;0.40;;;15.60;99.90;;;;;;5099389;28;20419;-82
2022/06/16 03:02:22;;;;;;;0.50;0.30;;;15.50;99.90;;;;;;5099238;28;20772;-83
2022/06/16 03:04:52;;;;;;;0.50;0.40;;;15.50;99.90;;;;;;5098148;28;20543;-82
2022/06/16 03:07:19;;;;;;;0.50;0.40;;;15.40;99.90;;;;;;5098768;28;20490;-82
2022/06/16 03:09:46;;;;;;;0.50;0.40;;;15.40;99.90;;;;;;5098924;28;20474;-83
2022/06/16 03:12:15;;;;;;;0.50;0.40;;;15.30;99.90;;;;;;5098163;28;20545;-83
2022/06/16 03:14:43;;;;;;;0.50;0.40;;;15.30;99.90;;;;;;5098122;28;20457;-83
2022/06/16 03:17:11;;;;;;;0.50;0.40;;;15.20;99.90;;;;;;5097352;28;20567;-84
2022/06/16 03:19:40;;;;;;;0.50;0.40;;;15.10;99.90;;;;;;5097478;28;20450;-82
2022/06/16 03:22:08;;;;;;;0.50;0.40;;;15.10;99.90;;;;;;5096897;28;20521;-81
2022/06/16 03:24:35;;;;;;;0.50;0.40;;;15.00;99.90;;;;;;5096807;28;20461;-78
2022/06/16 03:27:02;;;;;;;0.50;0.40;;;15.00;99.90;;;;;;5097325;28;20466;-83
2022/06/16 03:29:29;;;;;;;0.50;0.40;;;14.90;99.90;;;;;;5098111;28;20466;-83
2022/06/16 03:31:56;;;;;;;0.50;0.40;;;14.90;99.90;;;;;;5097591;28;20533;-81
2022/06/16 03:34:23;;;;;;;0.50;0.40;;;14.90;99.90;;;;;;5098405;28;20522;-82
2022/06/16 03:36:52;;;;;;;0.50;0.40;;;14.90;99.90;;;;;;5096857;28;20832;-82
2022/06/16 03:39:19;;;;;;;0.50;0.40;;;14.80;99.90;;;;;;5098076;28;20503;-83
2022/06/16 03:41:46;;;;;;;0.50;0.40;;;14.80;99.90;;;;;;5097365;28;20463;-83
2022/06/16 03:44:12;;;;;;;0.50;0.40;;;14.60;99.90;;;;;;5097324;28;20279;-83
2022/06/16 03:46:39;;;;;;;0.50;0.40;;;14.60;99.90;;;;;;5097612;28;20881;-82
2022/06/16 03:49:07;;;;;;;0.50;0.40;;;14.60;99.90;;;;;;5097109;28;20514;-82
2022/06/16 03:51:34;;;;;;;0.50;0.40;;;14.50;99.90;;;;;;5096498;28;20821;-83
2022/06/16 03:54:02;;;;;;;0.50;0.40;;;14.50;99.90;;;;;;5097111;28;20522;-83
2022/06/16 03:56:29;;;;;;;0.50;0.40;;;14.40;99.90;;;;;;5096472;28;20471;-83
2022/06/16 03:58:57;;;;;;;0.50;0.40;;;14.40;99.90;;;;;;5096748;28;20570;-82
2022/06/16 04:01:25;;;;;;;0.50;0.40;;;14.50;99.90;;;;;;5097359;28;20467;-83
2022/06/16 04:04:01;;;;;;;0.50;0.40;;;14.50;99.90;;;;;;5096175;28;20193;-82
2022/06/16 04:06:29;;;;;;;0.50;0.40;;;14.50;99.90;;;;;;5096950;28;20426;-83
2022/06/16 04:08:56;;;;;;;0.50;0.40;;;14.40;99.90;;;;;;5096230;28;20478;-83
2022/06/16 04:11:28;;;;;;;0.50;0.40;;;14.40;99.90;;;;;;5096760;28;20836;-84
2022/06/16 04:13:56;;;;;;;0.50;0.40;;;14.40;99.90;;;;;;5096713;28;20515;-83
2022/06/16 04:16:23;;;;;;;0.50;0.40;;;14.40;99.90;;;;;;5097447;28;20467;-82
2022/06/16 04:18:50;;;;;;;0.50;0.40;;;14.30;99.90;;;;;;5096658;28;20565;-82
2022/06/16 04:21:17;;;;;;;0.50;0.40;;;14.30;99.90;;;;;;5097422;28;20841;-83
2022/06/16 04:23:44;;;;;;;0.50;0.40;;;14.30;99.90;;;;;;5095483;28;20535;-80
2022/06/16 04:26:11;;;;;;;0.50;0.40;;;14.40;99.90;;;;;;5095360;28;20521;-80
2022/06/16 04:28:39;;;;;;;0.50;0.40;;;14.40;99.90;;;;;;5094254;28;20531;-81
2022/06/16 04:31:06;;;;;;;0.50;0.40;;;14.40;99.90;;;;;;5094432;28;20535;-81
2022/06/16 04:33:33;;;;;;;0.50;0.40;;;14.40;99.90;;;;;;5096635;28;20536;-80
2022/06/16 04:36:00;;;;;;;0.50;0.40;;;14.40;99.90;;;;;;5095018;28;20522;-80
2022/06/16 04:38:27;;;;;;;0.50;0.40;;;14.40;99.90;;;;;;5094150;28;20996;-80
2022/06/16 04:40:54;;;;;;;0.50;0.40;;;14.40;99.90;;;;;;5094699;28;20431;-80
2022/06/16 04:43:21;;;;;;;0.50;0.40;;;14.50;99.90;;;;;;5094903;28;20462;-80
2022/06/16 04:45:49;;;;;;;0.50;0.40;;;14.60;99.90;;;;;;5094792;28;20517;-80
2022/06/16 04:48:16;;;;;;;0.50;0.40;;;14.60;99.90;;;;;;5094092;28;20986;-80
2022/06/16 04:50:43;;;;;;;0.50;0.40;;;14.70;99.90;;;;;;5094544;28;20467;-81
2022/06/16 04:53:10;;;;;;;0.50;0.40;;;14.70;99.90;;;;;;5094213;28;20439;-81
2022/06/16 04:55:37;;;;;;;0.50;0.40;;;14.80;99.90;;;;;;5095194;28;20526;-81
2022/06/16 04:58:05;;;;;;;0.50;0.40;;;14.80;99.90;;;;;;5094394;28;20490;-80
2022/06/16 05:00:32;;;;;;;0.50;0.40;;;14.80;99.90;;;;;;5094072;28;20526;-81
2022/06/16 05:03:00;;;;;;;0.50;0.40;;;14.90;99.90;;;;;;5094462;28;20530;-79
2022/06/16 05:05:27;;;;;;;0.50;0.30;;;15.00;99.90;;;;;;5094995;28;20447;-81
2022/06/16 05:07:54;;;;;;;0.50;0.40;;;15.10;99.90;;;;;;5094654;28;20980;-80
2022/06/16 05:10:21;;;;;;;0.50;0.40;;;15.10;99.90;;;;;;5095396;28;20458;-81
2022/06/16 05:12:48;;;;;;;0.50;0.40;;;15.20;99.90;;;;;;5095115;28;20514;-81
2022/06/16 05:15:15;;;;;;;0.50;0.40;;;15.30;99.90;;;;;;5094823;28;21194;-82
2022/06/16 05:17:42;;;;;;;0.50;0.40;;;15.30;99.90;;;;;;5094918;28;20909;-81
2022/06/16 05:20:11;;;;;;;0.50;0.30;;;15.40;99.90;;;;;;5085391;28;20889;-80
2022/06/16 05:22:38;;;;;;;0.50;0.40;;;15.50;99.90;;;;;;5088885;28;20451;-81
2022/06/16 05:25:06;;;;;;;0.50;0.40;;;15.50;99.90;;;;;;5093696;28;20900;-79
2022/06/16 05:27:33;;;;;;;0.50;0.40;;;15.60;99.90;;;;;;5093814;28;20486;-80
2022/06/16 05:29:59;;;;;;;0.50;0.40;;;15.70;99.90;;;;;;5093532;28;20435;-82
2022/06/16 05:32:26;;;;;;;0.50;0.40;;;15.70;99.90;;;;;;5093831;28;20629;-81
2022/06/16 05:34:53;;;;;;;0.50;0.40;;;15.70;99.90;;;;;;5090574;28;20474;-81
2022/06/16 05:37:21;;;;;;;0.50;0.40;;;15.80;99.90;;;;;;5092582;28;20521;-83
2022/06/16 05:39:49;;;;;;;0.50;0.40;;;15.90;99.90;;;;;;5082375;28;20504;-82
2022/06/16 05:42:16;;;;;;;0.50;0.30;;;16.00;99.90;;;;;;5082298;28;20443;-83
2022/06/16 05:44:43;;;;;;;0.50;0.40;;;16.10;99.90;;;;;;5083095;28;20464;-82
2022/06/16 05:47:10;;;;;;;0.50;0.30;;;16.10;99.90;;;;;;5084305;28;20469;-83
2022/06/16 05:49:38;;;;;;;0.50;0.40;;;16.20;99.90;;;;;;5082555;28;20487;-82
2022/06/16 05:52:08;;;;;;;0.50;0.40;;;16.30;99.90;;;;;;5151773;22;20436;-74
2022/06/16 05:54:37;;;;;;;0.50;0.40;;;16.50;99.90;;;;;;5058343;28;20485;-77
2022/06/16 05:57:05;;;;;;;0.50;0.30;;;16.60;99.90;;;;;;5061958;28;20444;-78
2022/06/16 05:59:32;;;;;;;0.50;0.40;;;16.70;99.90;;;;;;5073531;28;20510;-78
2022/06/16 06:01:59;;;;;;;0.50;0.30;;;16.80;99.90;;;;;;5074038;28;20473;-77
2022/06/16 06:04:25;;;;;;;0.50;0.40;;;17.00;99.90;;;;;;5073735;28;20446;-78
2022/06/16 06:06:53;;;;;;;0.50;0.40;;;17.10;99.90;;;;;;5073646;28;20529;-78
2022/06/16 06:17:38;;;;;;;0.50;0.40;;;17.60;99.90;;;;;;5073580;28;20426;-78
2022/06/16 06:20:06;;;;;;;0.50;0.30;;;17.70;99.90;;;;;;5073549;28;20440;-78
2022/06/16 06:22:33;;;;;;;0.60;0.40;;;17.90;99.90;;;;;;5073749;28;20494;-77
2022/06/16 06:25:00;;;;;;;0.57;0.50;;;18.10;99.90;;;;;;5073376;28;20535;-78
2022/06/16 06:27:33;;;;;;;0.50;0.40;;;18.40;99.90;;;;;;5073275;28;20443;-77
2022/06/16 06:30:00;;;;;;;0.50;0.40;;;18.60;99.90;;;;;;5073111;28;20515;-76
2022/06/16 06:32:28;;;;;;;0.50;0.30;;;18.70;99.90;;;;;;5073874;28;20459;-78
2022/06/16 06:34:55;;;;;;;0.50;0.30;;;18.90;99.90;;;;;;5073149;28;20821;-77
2022/06/16 06:37:27;;;;;;;0.50;0.40;;;19.30;99.90;;;;;;5073009;28;20447;-79
2022/06/16 06:39:55;;;;;;;0.60;0.50;;;20.60;99.90;;;;;;5073376;28;20562;-78
2022/06/16 06:42:22;;;;;;;0.50;0.40;;;22.30;97.60;;;;;;5073411;28;20460;-78
2022/06/16 06:44:51;;;;;;;0.50;0.30;;;23.80;89.70;;;;;;5073059;28;20531;-79
2022/06/16 06:47:20;;;;;;;0.50;0.40;;;25.10;81.40;;;;;;5073175;28;20527;-78
2022/06/16 06:49:48;;;;;;;0.50;0.30;;;26.20;71.50;;;;;;5073362;28;20436;-78
2022/06/16 06:52:15;;;;;;;0.50;0.30;;;26.90;68.50;;;;;;5073458;28;20674;-79
2022/06/16 06:54:45;;;;;;;0.50;0.30;;;27.90;66.60;;;;;;5073327;28;20467;-79
2022/06/16 06:57:14;;;;;;;0.50;0.30;;;28.70;60.60;;;;;;5073223;28;20946;-78
2022/06/16 06:59:41;;;;;;;0.70;0.40;;;28.90;60.00;;;;;;5072553;28;20564;-77
2022/06/16 07:02:12;;;;;;;0.50;0.30;;;29.90;58.50;;;;;;5072901;28;20498;-77
2022/06/16 07:04:39;;;;;;;0.50;0.30;;;30.90;55.40;;;;;;5072279;28;20887;-76
2022/06/16 07:07:06;;;;;;;0.73;0.73;;;31.60;54.00;;;;;;5072392;28;20519;-76
2022/06/16 07:09:33;;;;;;;0.50;0.30;;;32.70;51.60;;;;;;5072349;28;20876;-77
2022/06/16 07:12:00;;;;;;;0.50;0.30;;;33.20;50.40;;;;;;5071829;28;20447;-77
2022/06/16 07:14:29;;;;;;;0.50;0.40;;;34.00;50.80;;;;;;5072715;28;20486;-78
2022/06/16 07:16:56;;;;;;;0.50;0.30;;;34.70;47.70;;;;;;5072340;28;20455;-74
2022/06/16 07:19:24;;;;;;;0.50;0.30;;;34.40;46.30;;;;;;5071956;28;20562;-77
2022/06/16 07:21:51;;;;;;;0.50;0.30;;;33.90;46.40;;;;;;5071890;28;20997;-76
2022/06/16 07:24:18;;;;;;;0.50;0.30;;;33.60;46.40;;;;;;5071458;28;20975;-77
2022/06/16 07:26:45;;;;;;;0.50;0.30;;;33.60;46.40;;;;;;5071634;28;20531;-77
2022/06/16 07:29:11;;;;;;;0.50;0.30;;;33.60;46.40;;;;;;5072491;28;20436;-75
2022/06/16 07:31:38;;;;;;;0.50;0.30;;;33.50;47.80;;;;;;5072019;28;20472;-76
2022/06/16 07:34:05;;;;;;;2.63;1.63;;;34.00;46.80;;;;;;5072584;28;20638;-77
2022/06/16 07:36:33;;;;;;;6.43;0.80;;;34.30;45.70;;;;;;5071480;28;21028;-77
2022/06/16 07:39:00;;;;;;;0.50;0.30;;;34.90;45.90;;;;;;5071426;28;20562;-75
2022/06/16 07:41:34;;;;;;;0.50;0.30;;;34.80;45.00;;;;;;5072074;28;20878;-77
2022/06/16 07:44:02;;;;;;;0.50;0.30;;;35.30;44.80;;;;;;5072044;28;20468;-77
2022/06/16 07:46:29;;;;;;;0.50;0.30;;;35.70;44.90;;;;;;5072116;28;20474;-77
2022/06/16 07:48:56;;;;;;;0.50;0.30;;;36.00;43.90;;;;;;5071548;28;20527;-76
2022/06/16 07:51:23;;;;;;;0.40;0.30;;;35.90;43.10;;;;;;5071596;28;20531;-77
2022/06/16 07:53:52;;;;;;;0.50;0.30;;;36.00;43.50;;;;;;5071594;28;20563;-76
2022/06/16 07:56:20;;;;;;;0.50;0.30;;;35.20;43.20;;;;;;5071943;28;20468;-78
2022/06/16 07:58:47;;;;;;;0.50;0.30;;;35.60;43.60;;;;;;5070542;28;20479;-76
2022/06/16 08:01:14;;;;;;;0.50;0.30;;;36.10;43.90;;;;;;5058205;28;20479;-76
2022/06/16 08:03:41;;;;;;;0.50;0.30;;;36.90;44.40;;;;;;5071825;28;20543;-78
2022/06/16 08:06:10;;;;;;;0.40;0.30;;;37.80;41.80;;;;;;5071950;28;20539;-78
2022/06/16 08:08:38;;;;;;;0.40;0.30;;;38.40;41.40;;;;;;5072221;28;20451;-77
2022/06/16 08:12:03;;;;;;;0.40;0.30;;;38.70;39.60;;;;;;5072007;28;20859;-78
2022/06/16 08:13:55;;;;;;;0.90;0.90;;;38.60;39.30;;;;;;5066589;28;20503;-75
2022/06/16 08:16:22;;;;;;;0.40;0.30;;;39.00;38.70;;;;;;5063728;28;20481;-78
2022/06/16 08:18:49;;;;;;;0.40;0.30;;;38.90;38.40;;;;;;5064984;28;20967;-78
2022/06/16 08:21:16;;;;;;;0.40;0.30;;;38.70;38.50;;;;;;5055051;28;20540;-78
2022/06/16 08:23:43;;;;;;;0.40;0.30;;;38.40;37.50;;;;;;5051116;28;20808;-77
2022/06/16 08:26:11;;;;;;;0.40;0.30;;;38.70;37.40;;;;;;5051073;28;20954;-77
2022/06/16 08:28:39;;;;;;;0.60;0.50;;;38.10;37.50;;;;;;5050826;28;20439;-77
2022/06/16 08:31:07;;;;;;;0.40;0.30;;;38.20;38.50;;;;;;5051326;28;20417;-76
2022/06/16 08:33:35;;;;;;;0.40;0.30;;;38.20;38.00;;;;;;5061277;28;20471;-77
2022/06/16 08:36:01;;;;;;;0.40;0.30;;;38.50;37.70;;;;;;5069811;28;20472;-75
2022/06/16 08:38:28;;;;;;;0.40;0.30;;;38.40;37.20;;;;;;5069100;28;20510;-77
2022/06/16 08:41:12;;;;;;;0.60;0.60;;;37.60;37.10;;;;;;5070801;28;20527;-76
2022/06/16 08:43:48;;;;;;;0.50;0.40;;;37.00;37.60;;;;;;5071091;28;20456;-77
2022/06/16 08:46:18;;;;;;;0.50;0.30;;;36.30;37.50;;;;;;5070631;28;20420;-78
2022/06/16 08:48:58;;;;;;;0.47;0.30;;;36.40;39.00;;;;;;5071112;28;20507;-77
2022/06/16 08:51:33;;;;;;;0.50;0.30;;;36.30;38.30;;;;;;5070594;28;20454;-76
2022/06/16 08:54:14;;;;;;;0.40;0.30;;;36.70;38.00;;;;;;5070672;28;20995;-76
2022/06/16 08:56:48;;;;;;;0.40;0.30;;;36.40;38.00;;;;;;5071349;28;20427;-76
2022/06/16 08:59:27;;;;;;;0.40;0.30;;;36.50;39.00;;;;;;5069985;28;20487;-77
2022/06/16 09:02:00;;;;;;;0.50;0.40;;;36.50;39.10;;;;;;5070644;28;20530;-78
2022/06/16 09:04:32;;;;;;;0.60;0.60;;;37.20;38.00;;;;;;5071007;28;20854;-77
2022/06/16 09:07:10;;;;;;;0.40;0.30;;;37.60;37.20;;;;;;5071346;28;20507;-78
2022/06/16 09:12:59;;;;;;;0.77;0.77;;;36.90;37.00;;;;;;5074585;28;20431;-76
2022/06/16 09:15:34;;;;;;;0.40;0.30;;;37.20;37.40;;;;;;5069151;28;20543;-77
2022/06/16 09:18:23;;;;;;;0.50;0.30;;;37.70;35.70;;;;;;5073970;28;20961;-78
2022/06/16 09:20:58;;;;;;;0.40;0.30;;;37.20;36.20;;;;;;5074401;28;20475;-78
2022/06/16 09:23:44;;;;;;;0.40;0.30;;;37.60;36.70;;;;;;5074545;28;20501;-77
2022/06/16 09:26:20;;;;;;;0.40;0.30;;;37.40;36.00;;;;;;5074462;28;20762;-78
2022/06/16 09:28:51;;;;;;;0.40;0.30;;;37.90;37.10;;;;;;5073761;28;20419;-77
2022/06/16 09:31:25;;;;;;;0.40;0.30;;;38.10;36.60;;;;;;5073909;28;20515;-77
2022/06/16 09:33:56;;;;;;;0.40;0.30;;;38.20;37.20;;;;;;5074477;28;20893;-77
2022/06/16 09:36:27;;;;;;;0.40;0.30;;;38.30;36.80;;;;;;5073978;28;20786;-78
2022/06/16 09:39:00;;;;;;;0.60;0.60;;;39.00;36.50;;;;;;5073605;28;20468;-78
2022/06/16 09:44:29;;;;;;;0.40;0.30;;;38.80;37.40;;;;;;5073958;28;20833;-77
2022/06/16 09:47:02;;;;;;;0.40;0.30;;;38.70;36.50;;;;;;5074153;28;20503;-77
2022/06/16 09:49:36;;;;;;;0.40;0.30;;;39.30;36.20;;;;;;5074353;28;20441;-77
2022/06/16 09:52:08;;;;;;;0.50;0.30;;;38.90;35.30;;;;;;5074010;28;20866;-77
2022/06/16 09:54:39;;;;;;;0.40;0.30;;;38.20;35.50;;;;;;5073452;28;20512;-78
2022/06/16 09:57:11;;;;;;;0.40;0.30;;;38.40;36.90;;;;;;5073639;28;20514;-77
2022/06/16 09:59:43;;;;;;;0.40;0.30;;;38.20;36.70;;;;;;5073580;28;20506;-77
2022/06/16 10:02:18;;;;;;;0.40;0.30;;;39.00;36.10;;;;;;5073348;28;20504;-77
2022/06/16 10:04:45;;;;;;;0.40;0.30;;;39.70;36.10;;;;;;5073805;28;20928;-78
2022/06/16 10:07:19;;;;;;;0.40;0.40;;;39.60;35.80;;;;;;5073294;28;20531;-78
2022/06/16 10:09:52;;;;;;;0.40;0.30;;;39.20;36.00;;;;;;5073365;28;20416;-78
2022/06/16 10:12:29;;;;;;;0.40;0.30;;;39.90;36.00;;;;;;5073601;28;20498;-77
2022/06/16 10:15:04;;;;;;;0.40;0.30;;;40.50;35.70;;;;;;5073793;28;20534;-76
2022/06/16 10:17:35;;;;;;;0.40;0.30;;;40.20;34.60;;;;;;5073122;28;20967;-76
2022/06/16 10:20:03;;;;;;;0.40;0.30;;;39.80;36.80;;;;;;5073361;28;20598;-73
2022/06/16 10:22:32;;;;;;;0.40;0.30;;;39.80;36.00;;;;;;5072349;28;20594;-77
2022/06/16 10:25:05;;;;;;;0.40;0.30;;;39.50;35.80;;;;;;5073301;28;20599;-78
2022/06/16 10:27:38;;;;;;;0.50;0.40;;;38.90;36.50;;;;;;5073286;28;20453;-77
2022/06/16 10:30:09;;;;;;;0.40;0.30;;;38.90;36.80;;;;;;5072883;28;20436;-78
2022/06/16 10:32:41;;;;;;;0.40;0.30;;;39.30;36.80;;;;;;5073093;28;20543;-77
2022/06/16 10:35:16;;;;;;;0.40;0.30;;;39.50;35.90;;;;;;5072451;28;20532;-77
2022/06/16 10:37:44;;;;;;;0.40;0.30;;;40.00;36.10;;;;;;5072768;28;20523;-78
2022/06/16 10:40:15;;;;;;;0.40;0.30;;;40.30;35.50;;;;;;5072637;28;21032;-77
2022/06/16 10:42:45;;;;;;;0.40;0.30;;;40.70;35.50;;;;;;5072954;28;20452;-78
2022/06/16 10:45:15;;;;;;;0.40;0.30;;;41.00;35.10;;;;;;5072749;28;20486;-77
2022/06/16 10:47:49;;;;;;;0.40;0.30;;;40.10;34.40;;;;;;5072573;28;20880;-76
2022/06/16 10:50:21;;;;;;;0.40;0.30;;;39.10;35.40;;;;;;5072712;28;20495;-77
2022/06/16 10:52:53;;;;;;;0.40;0.30;;;38.30;36.10;;;;;;5072320;28;20547;-76
2022/06/16 10:55:22;;;;;;;0.40;0.30;;;37.60;37.60;;;;;;5073207;28;20508;-77
2022/06/16 10:57:59;;;;;;;0.40;0.30;;;37.80;38.00;;;;;;5072195;28;20468;-77
2022/06/16 11:00:27;;;;;;;0.57;0.50;;;38.10;37.60;;;;;;5071999;28;20988;-77
2022/06/16 11:03:01;;;;;;;0.40;0.30;;;38.30;38.00;;;;;;5072270;28;20539;-76
2022/06/16 11:05:31;;;;;;;0.40;0.30;;;38.50;37.70;;;;;;5072306;28;20464;-77
2022/06/16 11:08:08;;;;;;;0.40;0.30;;;38.90;37.00;;;;;;5072159;28;20444;-75
2022/06/16 11:10:39;;;;;;;0.40;0.30;;;39.60;36.70;;;;;;5072381;28;20515;-76
2022/06/16 11:13:06;;;;;;;0.40;0.40;;;39.00;36.70;;;;;;5072509;28;20456;-77
2022/06/16 11:15:36;;;;;;;0.40;0.30;;;38.60;36.80;;;;;;5071980;28;20971;-77
2022/06/16 11:18:07;;;;;;;0.40;0.30;;;38.40;37.90;;;;;;5072128;28;20443;-76
2022/06/16 11:20:38;;;;;;;0.40;0.30;;;38.70;37.80;;;;;;5071854;28;20464;-77
2022/06/16 11:23:25;;;;;;;0.40;0.30;;;39.00;37.50;;;;;;5072539;28;20539;-77
2022/06/16 11:25:56;;;;;;;0.40;0.30;;;39.40;37.20;;;;;;5072082;28;20439;-78
2022/06/16 11:28:25;;;;;;;0.40;0.30;;;39.60;37.70;;;;;;5071590;28;20964;-76
2022/06/16 11:30:59;;;;;;;0.80;0.80;;;39.60;35.80;;;;;;5071691;28;21005;-77
2022/06/16 11:36:41;;;;;;;0.40;0.30;;;39.50;36.80;;;;;;5071308;28;20404;-78
2022/06/16 11:39:14;;;;;;;0.83;0.83;;;39.30;36.90;;;;;;5071353;28;21000;-78
2022/06/16 11:41:44;;;;;;;0.40;0.30;;;39.10;36.50;;;;;;5071870;28;20448;-78
2022/06/16 11:44:24;;;;;;;28.03;6.30;;;38.60;36.90;;;;;;5071726;28;20543;-78
2022/06/16 11:46:57;;;;;;;0.40;0.30;;;38.40;37.10;;;;;;5071533;28;20906;-77
2022/06/16 11:49:34;;;;;;;1.37;0.80;;;38.40;37.50;;;;;;5071056;28;20515;-78
2022/06/16 11:52:09;;;;;;;0.40;0.30;;;38.60;37.20;;;;;;5071204;28;20492;-76
2022/06/16 11:54:48;;;;;;;0.40;0.30;;;38.10;37.50;;;;;;5060754;22;20584;-86
2022/06/16 11:57:24;;;;;;;0.40;0.30;;;38.50;37.50;;;;;;5036965;28;20576;-83
2022/06/16 12:00:17;;;;;;;0.40;0.30;;;38.40;36.50;;;;;;5036700;28;20457;-86
2022/06/16 12:03:10;;;;;;;0.40;0.30;;;38.50;37.60;;;;;;5032669;28;20439;-83
2022/06/16 12:05:43;;;;;;;0.40;0.30;;;39.00;38.50;;;;;;5044107;28;20453;-82
2022/06/16 12:08:31;;;;;;;0.40;0.30;;;39.50;36.90;;;;;;5044331;28;20528;-86
2022/06/16 12:11:06;;;;;;;0.40;0.30;;;39.50;37.70;;;;;;5049741;28;20442;-83
2022/06/16 12:13:40;;;;;;;0.40;0.30;;;39.00;36.50;;;;;;5048028;28;20483;-85
2022/06/16 12:16:14;;;;;;;0.40;0.30;;;38.50;37.70;;;;;;5047678;28;20438;-83
2022/06/16 12:18:54;;;;;;;0.40;0.30;;;38.90;37.80;;;;;;5048169;28;20476;-84
2022/06/16 12:21:30;;;;;;;0.50;0.40;;;39.50;37.90;;;;;;5042472;28;20545;-86
2022/06/16 12:24:02;;;;;;;0.40;0.30;;;39.60;37.00;;;;;;5038831;28;20457;-86
2022/06/16 12:26:33;;;;;;;0.50;0.50;;;38.80;36.30;;;;;;5038556;28;20473;-87
2022/06/16 12:29:16;;;;;;;0.40;0.30;;;38.70;37.50;;;;;;5038291;28;20444;-86
2022/06/16 12:31:53;;;;;;;0.40;0.30;;;38.30;37.90;;;;;;5038098;28;20509;-84
2022/06/16 12:34:29;;;;;;;0.40;0.30;;;38.40;36.80;;;;;;5038640;28;20449;-86
2022/06/16 12:37:03;;;;;;;0.40;0.30;;;38.70;38.00;;;;;;5037785;28;20971;-85
2022/06/16 12:39:36;;;;;;;0.40;0.30;;;39.20;37.30;;;;;;5037659;28;20799;-85
2022/06/16 12:42:07;;;;;;;0.40;0.40;;;39.30;37.40;;;;;;5037376;28;20510;-86
2022/06/16 12:44:39;;;;;;;0.40;0.30;;;39.50;37.20;;;;;;5039082;28;21026;-86
2022/06/16 12:47:10;;;;;;;0.40;0.30;;;39.10;36.00;;;;;;5041991;28;20966;-85
2022/06/16 12:49:42;;;;;;;0.40;0.30;;;38.40;36.80;;;;;;5042502;28;20422;-85
2022/06/16 12:52:15;;;;;;;0.50;0.47;;;38.40;37.20;;;;;;5042891;28;20423;-83
2022/06/16 12:54:46;;;;;;;0.40;0.30;;;38.40;37.60;;;;;;5042154;28;20556;-86
2022/06/16 12:57:17;;;;;;;0.40;0.40;;;38.40;37.80;;;;;;5042254;28;20422;-84
2022/06/16 12:59:50;;;;;;;0.40;0.30;;;38.60;37.80;;;;;;5042000;28;20521;-86
2022/06/16 13:02:21;;;;;;;0.40;0.30;;;38.50;36.50;;;;;;5041891;28;20446;-86
2022/06/16 13:04:51;;;;;;;0.40;0.30;;;38.70;37.80;;;;;;5042239;28;20541;-82
2022/06/16 13:07:23;;;;;;;0.40;0.30;;;38.80;37.40;;;;;;5041191;28;20856;-86
2022/06/16 13:09:50;;;;;;;0.40;0.30;;;38.40;37.70;;;;;;5042222;28;20505;-86
2022/06/16 13:12:21;;;;;;;0.40;0.30;;;38.00;37.80;;;;;;5041617;28;20514;-86
2022/06/16 13:14:55;;;;;;;0.40;0.30;;;38.20;37.20;;;;;;5042419;28;20459;-83
2022/06/16 13:17:27;;;;;;;0.40;0.30;;;38.00;36.90;;;;;;5040993;28;20458;-86
2022/06/16 13:19:58;;;;;;;0.40;0.30;;;37.70;36.80;;;;;;5040511;28;20426;-84
2022/06/16 13:22:34;;;;;;;0.40;0.30;;;37.80;38.50;;;;;;5040914;28;20454;-86
2022/06/16 13:25:04;;;;;;;0.40;0.30;;;38.30;38.80;;;;;;5041209;28;20484;-86
2022/06/16 13:27:39;;;;;;;0.40;0.30;;;38.50;38.00;;;;;;5041495;28;20533;-84